Nearby METAR Reports

 

K2W6 - St Marys (duke), Maryland, USA
Distance from station: ESE 19mi, 31km
Updated: Fri, 23-Aug-2019 3:43pm EDT
Overcast
Overcast
 Wind from N
Wind: N 5 mph , 7 km/h, Gust: 16 mph , 26 km/h
Temperature: 70°F , 21°C
Dew Point: 64°F , 18°C
Humidity: 83%
Barometer: 30.00 inHg , 1015.9 hPa
Clouds: Overcast
Visibility: 10 miles , 16 km
Cloud details: Overcast 1400 ft
2019/08/23 19:43 K2W6 231943Z AUTO 35004G14KT 10SM OVC014 21/18 A3000 RMK AO1
KADW - Andrews Afb, Maryland, USA
Distance from station: 0 27mi, 43km
Updated: Fri, 23-Aug-2019 3:33pm EDT
Rain, Mist, Overcast
Rain, Mist, Overcast
 Wind from NNE
Wind: NNE 7 mph , 11 km/h
Temperature: 66°F , 19°C
Dew Point: 66°F , 19°C
Humidity: 100%
Barometer: 30.02 inHg , 1016.6 hPa
Summary: Rain, Mist
Clouds: Overcast
Visibility: 3 miles , 5 km
Cloud details: Mostly cloudy 500 ft
Overcast 1100 ft
2019/08/23 19:33 KADW 231933Z 02006KT 3SM RA BR BKN005 OVC011 19/19 A3002 RMK AO2A CIG 002 RWY19L SLP171 $
 
KNHK - Patuxent River, Maryland, USA
Distance from station: ESE 28mi, 45km
Updated: Fri, 23-Aug-2019 2:52pm EDT
Overcast
Overcast
 Wind from N
Wind: N 16 mph , 26 km/h, Gust: 21 mph , 33 km/h
Temperature: 73°F , 23°C
Dew Point: 70°F , 21°C
Humidity: 89%
Barometer: 29.97 inHg , 1014.9 hPa
Clouds: Overcast
Visibility: 10 miles , 16 km
Cloud details: Partly cloudy 1300 ft
Overcast 2200 ft
2019/08/23 18:52 KNHK 231852Z 36014G18KT 10SM SCT013 OVC022 23/21 A2997 RMK AO2 RAE30 SLP150 P0008 T02330206
KDCA - Washington/Natl, Washington D.c., USA
Distance from station: NNW 30mi, 49km
Updated: Fri, 23-Aug-2019 3:34pm EDT
Light rain, Overcast
Light rain, Overcast
 Wind from NNE
Wind: NNE 10 mph , 17 km/h
Temperature: 70°F , 21°C
Dew Point: 66°F , 19°C
Humidity: 88%
Barometer: 30.02 inHg , 1016.6 hPa
Summary: Light rain
Clouds: Overcast
Visibility: 9 miles , 14 km
Cloud details: Partly cloudy 1200 ft
Mostly cloudy 4300 ft
Overcast 6000 ft
2019/08/23 19:34 KDCA 231934Z 02009KT 9SM -RA SCT012 BKN043 OVC060 21/19 A3002 RMK AO2 LTG DSNT SW P0008 T02110189
 
KNUI - Webster Naval, Maryland, USA
Distance from station: SE 31mi, 49km
Updated: Fri, 23-Aug-2019 2:53pm EDT
Overcast
Overcast
 Wind from N
Wind: N 8 mph , 13 km/h
Temperature: 77°F , 25°C
Dew Point: 70°F , 21°C
Humidity: 79%
Barometer: 29.96 inHg , 1014.6 hPa
Clouds: Overcast
Visibility: 10 miles , 16 km
Cloud details: Partly cloudy 2000 ft
Mostly cloudy 4700 ft
Overcast 6000 ft
2019/08/23 18:53 KNUI 231853Z AUTO 01007KT 310V060 10SM SCT020 BKN047 OVC060 25/21 A2996 RMK AO2 RAE44 SLP145 P0010 T02500211
KNAK - Annapolis/Naval, Maryland, USA
Distance from station: NNE 44mi, 70km
Updated: Fri, 23-Aug-2019 3:38pm EDT
Light rain, Overcast
Light rain, Overcast
 Wind from NNE
Wind: NNE 9 mph , 15 km/h
Temperature: 72°F , 22°C
Dew Point: 66°F , 19°C
Humidity: 83%
Barometer: 30.01 inHg , 1016.3 hPa
Summary: Light rain
Clouds: Overcast
Visibility: 5 miles , 8 km
Cloud details: Mostly cloudy 1200 ft
Overcast 4500 ft
2019/08/23 19:38 KNAK 231938Z AUTO 02008KT 5SM -RA BKN012 OVC045 22/19 A3001 RMK AO2 P0003 T02170189